createdAt,value
2022-08-26T00:01:41.704Z,19.17
2022-08-26T00:03:54.990Z,19.19
2022-08-26T00:06:03.857Z,19.17
2022-08-26T00:08:13.201Z,19.14
2022-08-26T00:10:22.925Z,19.14
2022-08-26T00:12:37.624Z,19.11
2022-08-26T00:14:46.178Z,19.05
2022-08-26T00:16:55.308Z,19.01
2022-08-26T00:19:05.976Z,19.01
2022-08-26T00:21:16.151Z,18.91
2022-08-26T00:23:24.397Z,18.86
2022-08-26T00:25:32.900Z,18.84
2022-08-26T00:27:41.280Z,18.78
2022-08-26T00:29:49.210Z,18.74
2022-08-26T00:31:57.203Z,18.69
2022-08-26T00:34:09.482Z,18.66
2022-08-26T00:36:20.297Z,18.61
2022-08-26T00:38:28.750Z,18.59
2022-08-26T00:40:40.742Z,18.67
2022-08-26T00:42:48.895Z,18.60
2022-08-26T00:44:57.746Z,18.52
2022-08-26T00:47:10.582Z,18.52
2022-08-26T00:49:26.300Z,18.50
2022-08-26T00:51:46.622Z,18.40
2022-08-26T00:54:00.488Z,18.28
2022-08-26T00:56:12.481Z,18.18
2022-08-26T00:58:21.714Z,18.13
2022-08-26T01:00:31.656Z,18.12
2022-08-26T01:02:39.903Z,18.05
2022-08-26T01:05:13.345Z,17.99
2022-08-26T01:07:21.505Z,18.06
2022-08-26T01:09:29.980Z,17.98
2022-08-26T01:11:38.230Z,17.91
2022-08-26T01:13:47.593Z,17.85
2022-08-26T01:16:00.269Z,17.81
2022-08-26T01:18:10.414Z,17.77
2022-08-26T01:20:34.183Z,17.76
2022-08-26T01:22:53.280Z,17.75
2022-08-26T01:25:04.973Z,17.72
2022-08-26T01:27:16.286Z,17.64
2022-08-26T01:29:24.282Z,17.59
2022-08-26T01:31:36.163Z,17.59
2022-08-26T01:33:51.016Z,17.64
2022-08-26T01:35:58.965Z,17.64
2022-08-26T01:38:14.109Z,17.66
2022-08-26T01:40:26.146Z,17.59
2022-08-26T01:42:34.391Z,17.59
2022-08-26T01:44:47.901Z,17.55
2022-08-26T01:46:57.501Z,17.53
2022-08-26T01:49:09.677Z,17.52
2022-08-26T01:51:20.118Z,17.51
2022-08-26T01:53:31.129Z,17.53
2022-08-26T01:55:42.091Z,17.54
2022-08-26T01:57:54.006Z,17.45
2022-08-26T02:00:08.853Z,17.41
2022-08-26T02:02:21.032Z,17.45
2022-08-26T02:04:33.839Z,17.52
2022-08-26T02:06:44.857Z,17.55
2022-08-26T02:09:08.101Z,17.45
2022-08-26T02:11:22.380Z,17.40
2022-08-26T02:13:32.923Z,17.42
2022-08-26T02:15:43.737Z,17.47
2022-08-26T02:17:53.617Z,17.47
2022-08-26T02:20:04.879Z,17.47
2022-08-26T02:22:25.241Z,17.51
2022-08-26T02:24:50.675Z,17.47
2022-08-26T02:26:59.519Z,17.50
2022-08-26T02:29:12.087Z,17.55
2022-08-26T02:31:20.338Z,17.67
2022-08-26T02:33:30.821Z,17.66
2022-08-26T02:35:40.061Z,17.69
2022-08-26T02:37:49.513Z,17.63
2022-08-26T02:40:00.643Z,17.67
2022-08-26T02:42:08.793Z,17.64
2022-08-26T02:44:16.944Z,17.60
2022-08-26T02:46:27.769Z,17.58
2022-08-26T02:48:38.634Z,17.57
2022-08-26T02:50:46.886Z,17.53
2022-08-26T02:52:57.144Z,17.50
2022-08-26T02:55:11.020Z,17.45
2022-08-26T02:57:19.346Z,17.47
2022-08-26T02:59:31.472Z,17.38
2022-08-26T03:01:39.426Z,17.22
2022-08-26T03:03:47.372Z,17.15
2022-08-26T03:05:57.762Z,17.01
2022-08-26T03:08:06.198Z,16.98
2022-08-26T03:10:16.713Z,16.97
2022-08-26T03:12:25.630Z,16.95
2022-08-26T03:14:33.732Z,16.93
2022-08-26T03:16:41.724Z,16.91
2022-08-26T03:18:52.305Z,16.83
2022-08-26T03:21:00.541Z,16.80
2022-08-26T03:23:09.034Z,16.75
2022-08-26T03:25:21.008Z,16.72
2022-08-26T03:27:29.451Z,16.78
2022-08-26T03:29:55.474Z,16.80
2022-08-26T03:32:04.192Z,16.74
2022-08-26T03:34:12.059Z,16.70
2022-08-26T03:36:20.366Z,16.60
2022-08-26T03:38:28.164Z,16.51
2022-08-26T03:40:39.889Z,16.58
2022-08-26T03:42:48.674Z,16.58
2022-08-26T03:44:57.243Z,16.44
2022-08-26T03:47:05.214Z,16.40
2022-08-26T03:49:14.239Z,16.33
2022-08-26T03:51:23.151Z,16.37
2022-08-26T03:53:32.802Z,16.47
2022-08-26T03:55:46.640Z,16.39
2022-08-26T03:57:57.204Z,16.33
2022-08-26T04:00:07.556Z,16.23
2022-08-26T04:02:16.480Z,16.17
2022-08-26T04:04:25.817Z,16.11
2022-08-26T04:06:36.166Z,16.07
2022-08-26T04:09:02.712Z,16.05
2022-08-26T04:11:22.643Z,16.07
2022-08-26T04:13:32.845Z,16.03
2022-08-26T04:15:40.817Z,16.02
2022-08-26T04:17:48.734Z,15.96
2022-08-26T04:19:56.940Z,15.99
2022-08-26T04:22:06.576Z,15.97
2022-08-26T04:24:16.555Z,15.93
2022-08-26T04:26:29.027Z,15.89
2022-08-26T04:28:37.129Z,15.88
2022-08-26T04:30:45.443Z,15.93
2022-08-26T04:32:53.444Z,15.89
2022-08-26T04:35:01.961Z,15.90
2022-08-26T04:37:10.783Z,15.96
2022-08-26T04:39:20.419Z,16.02
2022-08-26T04:41:31.692Z,16.02
2022-08-26T04:43:39.715Z,16.05
2022-08-26T04:45:47.591Z,16.02
2022-08-26T04:47:57.527Z,16.12
2022-08-26T04:50:06.246Z,16.24
2022-08-26T04:52:15.585Z,16.11
2022-08-26T04:54:25.193Z,16.12
2022-08-26T04:56:38.748Z,16.15
2022-08-26T04:58:46.790Z,16.24
2022-08-26T05:00:56.907Z,16.28
2022-08-26T05:03:05.113Z,16.48
2022-08-26T05:05:14.240Z,16.69
2022-08-26T05:07:22.348Z,17.17
2022-08-26T05:09:30.755Z,17.70
2022-08-26T05:11:41.433Z,17.93
2022-08-26T05:13:49.837Z,18.47
2022-08-26T05:15:58.221Z,18.93
2022-08-26T05:18:11.517Z,19.57
2022-08-26T05:20:25.188Z,19.65
2022-08-26T05:22:34.086Z,20.52
2022-08-26T05:24:43.355Z,21.24
2022-08-26T05:26:53.873Z,21.00
2022-08-26T05:29:01.724Z,21.51
2022-08-26T05:31:17.729Z,21.73
2022-08-26T05:33:26.508Z,22.67
2022-08-26T05:35:34.848Z,23.18
2022-08-26T05:37:43.019Z,23.80
2022-08-26T05:39:51.346Z,23.48
2022-08-26T05:42:04.407Z,23.39
2022-08-26T05:44:15.543Z,24.71
2022-08-26T05:46:24.509Z,25.11
2022-08-26T05:48:34.521Z,24.11
2022-08-26T05:50:43.824Z,23.06
2022-08-26T05:52:52.159Z,22.59
2022-08-26T05:55:00.096Z,21.22
2022-08-26T05:57:12.180Z,20.85
2022-08-26T05:59:24.115Z,21.01
2022-08-26T06:01:35.832Z,19.99
2022-08-26T06:03:46.603Z,19.74
2022-08-26T06:05:57.376Z,19.66
2022-08-26T06:08:14.757Z,19.78
2022-08-26T06:10:33.024Z,20.39
2022-08-26T06:12:44.184Z,20.71
2022-08-26T06:14:52.127Z,22.04
2022-08-26T06:17:00.927Z,22.99
2022-08-26T06:19:11.515Z,23.40
2022-08-26T06:21:22.001Z,24.69
2022-08-26T06:23:44.588Z,25.84
2022-08-26T06:25:53.245Z,27.98
2022-08-26T06:28:04.034Z,28.22
2022-08-26T06:30:13.131Z,27.29
2022-08-26T06:32:21.371Z,26.83
2022-08-26T06:34:31.324Z,27.71
2022-08-26T06:36:39.623Z,26.79
2022-08-26T06:38:47.905Z,25.76
2022-08-26T06:40:59.859Z,25.22
2022-08-26T06:43:10.410Z,26.05
2022-08-26T06:45:20.594Z,25.92
2022-08-26T06:47:29.208Z,26.63
2022-08-26T06:49:37.227Z,27.58
2022-08-26T06:51:46.987Z,26.31
2022-08-26T06:53:59.604Z,26.18
2022-08-26T06:56:09.644Z,26.52
2022-08-26T06:58:20.242Z,25.55
2022-08-26T07:00:28.445Z,26.79
2022-08-26T07:02:37.487Z,27.51
2022-08-26T07:04:45.438Z,27.14
2022-08-26T07:06:56.819Z,25.67
2022-08-26T07:09:09.762Z,26.15
2022-08-26T07:11:19.058Z,27.76
2022-08-26T07:13:30.655Z,28.18
2022-08-26T07:15:42.802Z,27.43
2022-08-26T07:17:51.259Z,26.12
2022-08-26T07:19:59.565Z,25.38
2022-08-26T07:22:09.344Z,26.36
2022-08-26T07:24:18.437Z,28.95
2022-08-26T07:26:30.840Z,29.23
2022-08-26T07:28:42.047Z,30.23
2022-08-26T07:30:50.134Z,31.18
2022-08-26T07:32:59.624Z,32.25
2022-08-26T07:35:09.234Z,31.16
2022-08-26T07:37:17.519Z,30.17
2022-08-26T07:39:27.272Z,31.54
2022-08-26T07:41:36.702Z,30.65
2022-08-26T07:43:48.565Z,30.01
2022-08-26T07:45:56.752Z,29.00
2022-08-26T07:48:05.385Z,30.15
2022-08-26T07:50:14.102Z,31.59
2022-08-26T07:52:26.581Z,30.53
2022-08-26T07:54:37.414Z,29.67
2022-08-26T07:56:46.291Z,28.00
2022-08-26T07:58:57.064Z,27.47
2022-08-26T08:01:05.121Z,28.21
2022-08-26T08:03:17.877Z,27.20
2022-08-26T08:05:33.607Z,26.46
2022-08-26T08:07:45.403Z,26.93
2022-08-26T08:09:53.457Z,26.85
2022-08-26T08:12:01.545Z,27.53
2022-08-26T08:14:12.236Z,28.27
2022-08-26T08:16:21.668Z,28.46
2022-08-26T08:18:32.649Z,28.50
2022-08-26T08:20:42.304Z,27.71
2022-08-26T08:22:53.429Z,26.78
2022-08-26T08:25:02.940Z,25.90
2022-08-26T08:27:14.161Z,25.52
2022-08-26T08:29:25.009Z,26.50
2022-08-26T08:34:02.315Z,27.69
2022-08-26T08:36:10.827Z,27.50
2022-08-26T08:38:28.472Z,27.91
2022-08-26T08:40:37.669Z,27.37
2022-08-26T08:42:53.824Z,27.22
2022-08-26T08:45:10.822Z,27.41
2022-08-26T08:47:24.219Z,27.06
2022-08-26T08:49:34.072Z,27.36
2022-08-26T08:51:50.048Z,27.22
2022-08-26T08:53:59.076Z,27.15
2022-08-26T08:56:21.375Z,27.31
2022-08-26T08:58:38.414Z,26.87
2022-08-26T09:00:54.403Z,26.71
2022-08-26T09:03:10.910Z,26.47
2022-08-26T09:05:24.507Z,26.13
2022-08-26T09:07:37.049Z,26.03
2022-08-26T09:09:49.313Z,25.63
2022-08-26T09:11:59.415Z,25.61
2022-08-26T09:14:11.103Z,25.77
2022-08-26T09:16:27.059Z,25.96
2022-08-26T09:18:47.563Z,26.59
2022-08-26T09:20:59.770Z,26.41
2022-08-26T09:23:07.705Z,27.17
2022-08-26T09:25:18.079Z,28.29
2022-08-26T09:27:41.051Z,28.49
2022-08-26T09:29:50.372Z,29.04
2022-08-26T09:32:21.280Z,29.29
2022-08-26T09:34:30.888Z,29.72
2022-08-26T09:36:42.623Z,30.86
2022-08-26T09:38:52.509Z,30.87
2022-08-26T09:41:02.350Z,31.10
2022-08-26T09:43:22.192Z,32.78
2022-08-26T09:45:31.979Z,33.65
2022-08-26T09:47:54.709Z,35.23
2022-08-26T09:50:12.628Z,36.21
2022-08-26T09:52:26.791Z,34.93
2022-08-26T09:54:38.613Z,33.00
2022-08-26T09:56:48.437Z,34.67
2022-08-26T09:58:57.831Z,36.31
2022-08-26T10:01:10.234Z,34.03
2022-08-26T10:03:28.611Z,35.37
2022-08-26T10:05:45.535Z,36.99
2022-08-26T10:07:54.417Z,35.30
2022-08-26T10:10:04.391Z,33.14
2022-08-26T10:12:18.270Z,33.19
2022-08-26T10:14:30.852Z,32.48
2022-08-26T10:16:53.576Z,34.18
2022-08-26T10:19:11.470Z,34.39
2022-08-26T10:21:24.474Z,32.59
2022-08-26T10:23:35.824Z,32.24
2022-08-26T10:25:58.996Z,33.94
2022-08-26T10:28:11.182Z,34.92
2022-08-26T10:30:21.215Z,34.76
2022-08-26T10:32:35.811Z,33.88
2022-08-26T10:34:51.733Z,34.48
2022-08-26T10:37:13.744Z,33.49
2022-08-26T10:39:29.272Z,34.95
2022-08-26T10:41:44.269Z,34.01
2022-08-26T10:43:57.989Z,32.31
2022-08-26T10:46:11.281Z,32.38
2022-08-26T10:48:23.565Z,33.26
2022-08-26T10:50:38.731Z,34.96
2022-08-26T10:53:01.350Z,35.25
2022-08-26T10:55:19.243Z,35.19
2022-08-26T10:57:38.263Z,33.71
2022-08-26T10:59:55.584Z,34.73
2022-08-26T11:02:08.995Z,35.23
2022-08-26T11:04:47.098Z,34.25
2022-08-26T11:07:25.708Z,33.17
2022-08-26T11:09:50.801Z,34.03
2022-08-26T11:11:58.657Z,33.72
2022-08-26T11:14:08.257Z,33.47
2022-08-26T11:16:35.528Z,33.54
2022-08-26T11:18:54.791Z,33.63
2022-08-26T11:21:02.734Z,33.90
2022-08-26T11:23:50.716Z,33.93
2022-08-26T11:26:37.693Z,33.87
2022-08-26T11:28:50.672Z,33.62
2022-08-26T11:31:00.056Z,33.53
2022-08-26T11:33:09.268Z,31.57
2022-08-26T11:35:53.295Z,31.00
2022-08-26T11:38:04.498Z,30.81
2022-08-26T11:40:17.345Z,29.77
2022-08-26T11:42:37.912Z,28.64
2022-08-26T11:44:49.625Z,28.31
2022-08-26T11:47:00.323Z,27.98
2022-08-26T11:49:09.987Z,28.25
2022-08-26T11:51:25.930Z,28.25
2022-08-26T11:53:37.179Z,28.07
2022-08-26T11:55:47.289Z,27.99
2022-08-26T11:58:04.629Z,27.97
2022-08-26T12:00:20.856Z,28.66
2022-08-26T12:02:31.346Z,28.56
2022-08-26T12:04:44.607Z,27.79
2022-08-26T12:06:54.392Z,27.74
2022-08-26T12:09:04.605Z,27.68
2022-08-26T12:11:23.217Z,28.16
2022-08-26T12:13:33.971Z,27.99
2022-08-26T12:15:42.494Z,28.38
2022-08-26T12:17:54.360Z,28.91
2022-08-26T12:20:02.872Z,29.25
2022-08-26T12:22:20.962Z,29.25
2022-08-26T12:24:29.345Z,29.08
2022-08-26T12:26:40.084Z,28.90
2022-08-26T12:28:55.222Z,28.27
2022-08-26T12:31:05.168Z,28.42
2022-08-26T12:33:22.259Z,28.43
2022-08-26T12:35:31.436Z,29.08
2022-08-26T12:37:44.894Z,28.80
2022-08-26T12:39:53.440Z,29.51
2022-08-26T12:42:03.097Z,29.10
2022-08-26T12:44:34.139Z,29.69
2022-08-26T12:46:43.916Z,29.78
2022-08-26T12:48:55.039Z,29.74
2022-08-26T12:51:03.601Z,29.96
2022-08-26T12:53:22.579Z,29.95
2022-08-26T12:55:40.829Z,29.81
2022-08-26T12:57:50.228Z,29.81
2022-08-26T13:00:36.707Z,29.49
2022-08-26T13:02:44.565Z,29.81
2022-08-26T13:05:01.183Z,29.56
2022-08-26T13:07:17.251Z,29.80
2022-08-26T13:09:33.999Z,30.38
2022-08-26T13:12:02.315Z,30.80
2022-08-26T13:14:12.611Z,30.53
2022-08-26T13:16:29.329Z,30.48
2022-08-26T13:18:37.598Z,30.65
2022-08-26T13:20:49.162Z,30.32
2022-08-26T13:22:59.067Z,30.70
2022-08-26T13:25:07.959Z,30.06
2022-08-26T13:27:20.751Z,29.94
2022-08-26T13:29:28.737Z,29.96
2022-08-26T13:31:41.526Z,30.08
2022-08-26T13:33:49.945Z,30.10
2022-08-26T13:35:58.295Z,29.47
2022-08-26T13:38:09.025Z,29.50
2022-08-26T13:40:17.319Z,29.59
2022-08-26T13:42:25.565Z,29.15
2022-08-26T13:44:33.545Z,29.21
2022-08-26T13:48:53.484Z,28.59
2022-08-26T13:51:02.717Z,28.32
2022-08-26T13:53:17.309Z,28.43
2022-08-26T13:55:25.249Z,28.20
2022-08-26T13:57:33.652Z,27.95
2022-08-26T13:59:41.680Z,27.74
2022-08-26T14:01:52.550Z,27.80
2022-08-26T14:04:02.610Z,27.64
2022-08-26T14:06:10.857Z,27.76
2022-08-26T14:08:20.154Z,27.54
2022-08-26T14:10:29.245Z,27.54
2022-08-26T14:12:37.043Z,27.32
2022-08-26T14:14:48.256Z,27.33
2022-08-26T14:17:00.404Z,27.15
2022-08-26T14:19:10.313Z,27.15
2022-08-26T14:21:18.415Z,27.11
2022-08-26T14:23:26.287Z,27.16
2022-08-26T14:25:34.223Z,27.11
2022-08-26T14:27:42.902Z,27.00
2022-08-26T14:29:52.369Z,27.12
2022-08-26T14:32:15.213Z,27.12
2022-08-26T14:34:23.210Z,27.15
2022-08-26T14:36:32.433Z,27.21
2022-08-26T14:38:40.452Z,27.22
2022-08-26T14:40:48.448Z,26.97
2022-08-26T14:42:58.897Z,26.85
2022-08-26T14:45:11.559Z,26.73
2022-08-26T14:47:22.708Z,26.68
2022-08-26T14:49:31.615Z,26.63
2022-08-26T14:51:40.747Z,26.69
2022-08-26T14:54:01.014Z,26.69
2022-08-26T14:56:09.723Z,26.55
2022-08-26T14:58:20.187Z,26.62
2022-08-26T15:00:28.590Z,26.62
2022-08-26T15:02:39.845Z,26.65
2022-08-26T15:04:47.802Z,26.61
2022-08-26T15:06:59.750Z,26.59
2022-08-26T15:09:08.610Z,26.54
2022-08-26T15:11:18.342Z,26.48
2022-08-26T15:13:26.274Z,26.62
2022-08-26T15:15:34.317Z,26.65
2022-08-26T15:17:45.131Z,26.32
2022-08-26T15:19:53.513Z,26.08
2022-08-26T15:22:01.531Z,25.81
2022-08-26T15:24:09.757Z,25.82
2022-08-26T15:26:18.724Z,25.66
2022-08-26T15:28:26.550Z,25.44
2022-08-26T15:30:34.726Z,25.29
2022-08-26T15:32:45.519Z,25.09
2022-08-26T15:34:53.449Z,24.91
2022-08-26T15:37:02.129Z,24.94
2022-08-26T15:39:10.544Z,24.89
2022-08-26T15:41:20.044Z,24.79
2022-08-26T15:43:29.827Z,24.50
2022-08-26T15:45:37.803Z,24.43
2022-08-26T15:48:00.871Z,24.56
2022-08-26T15:50:11.101Z,24.53
2022-08-26T15:52:19.071Z,24.54
2022-08-26T15:54:28.392Z,24.49
2022-08-26T15:56:47.999Z,24.46
2022-08-26T15:58:56.736Z,24.50
2022-08-26T16:01:04.710Z,24.67
2022-08-26T16:03:15.196Z,24.57
2022-08-26T16:05:23.065Z,24.58
2022-08-26T16:07:30.991Z,24.54
2022-08-26T16:09:38.911Z,24.50
2022-08-26T16:11:47.062Z,24.36
2022-08-26T16:13:55.433Z,24.33
2022-08-26T16:16:03.536Z,24.29
2022-08-26T16:18:15.677Z,24.20
2022-08-26T16:20:23.856Z,23.88
2022-08-26T16:22:33.283Z,23.60
2022-08-26T16:24:41.456Z,23.32
2022-08-26T16:26:49.269Z,23.13
2022-08-26T16:28:57.294Z,22.97
2022-08-26T16:31:05.312Z,22.76
2022-08-26T16:33:29.560Z,22.63
2022-08-26T16:35:37.776Z,22.49
2022-08-26T16:37:45.948Z,22.31
2022-08-26T16:39:53.919Z,22.13
2022-08-26T16:42:01.751Z,22.05
2022-08-26T16:44:12.156Z,21.96
2022-08-26T16:46:22.297Z,21.77
2022-08-26T16:48:32.940Z,21.63
2022-08-26T16:50:43.070Z,21.70
2022-08-26T16:52:55.775Z,21.66
2022-08-26T16:55:04.950Z,21.37
2022-08-26T16:57:14.223Z,21.27
2022-08-26T16:59:22.421Z,21.23
2022-08-26T17:01:31.444Z,21.20
2022-08-26T17:03:41.888Z,21.17
2022-08-26T17:05:49.913Z,21.20
2022-08-26T17:07:58.905Z,20.99
2022-08-26T17:10:07.815Z,21.11
2022-08-26T17:12:15.786Z,20.87
2022-08-26T17:14:24.165Z,20.78
2022-08-26T17:16:32.200Z,20.68
2022-08-26T17:18:43.557Z,20.56
2022-08-26T17:20:54.006Z,20.41
2022-08-26T17:23:02.123Z,20.37
2022-08-26T17:25:16.724Z,20.33
2022-08-26T17:27:24.743Z,20.28
2022-08-26T17:29:32.627Z,20.18
2022-08-26T17:31:40.633Z,20.25
2022-08-26T17:33:55.649Z,20.14
2022-08-26T17:36:03.953Z,20.07
2022-08-26T17:38:12.045Z,20.08
2022-08-26T17:40:23.061Z,20.10
2022-08-26T17:42:31.877Z,20.06
2022-08-26T17:44:39.844Z,20.02
2022-08-26T17:46:47.842Z,19.99
2022-08-26T17:48:58.648Z,19.90
2022-08-26T17:51:10.171Z,19.92
2022-08-26T17:53:19.076Z,19.77
2022-08-26T17:55:27.284Z,19.69
2022-08-26T17:57:40.482Z,19.58
2022-08-26T17:59:49.114Z,19.59
2022-08-26T18:02:01.477Z,19.48
2022-08-26T18:04:13.646Z,19.34
2022-08-26T18:06:23.643Z,19.18
2022-08-26T18:08:32.071Z,18.96
2022-08-26T18:10:40.242Z,18.89
2022-08-26T18:12:48.593Z,18.73
2022-08-26T18:14:56.529Z,18.57
2022-08-26T18:17:05.191Z,18.52
2022-08-26T18:19:15.746Z,18.55
2022-08-26T18:21:28.644Z,18.43
2022-08-26T18:23:38.478Z,18.36
2022-08-26T18:25:47.033Z,18.16
2022-08-26T18:27:58.093Z,18.31
2022-08-26T18:30:07.845Z,18.23
2022-08-26T18:32:18.132Z,18.23
2022-08-26T18:34:29.451Z,18.40
2022-08-26T18:36:40.279Z,18.36
2022-08-26T18:38:50.305Z,18.19
2022-08-26T18:40:58.526Z,18.08
2022-08-26T18:43:06.566Z,17.98
2022-08-26T18:45:16.038Z,17.93
2022-08-26T18:47:24.175Z,17.94
2022-08-26T18:49:34.930Z,18.05
2022-08-26T18:51:43.691Z,18.07
2022-08-26T18:53:51.860Z,18.01
2022-08-26T18:55:59.862Z,18.04
2022-08-26T18:58:07.651Z,18.08
2022-08-26T19:00:17.567Z,18.15
2022-08-26T19:02:27.402Z,18.14
2022-08-26T19:04:41.358Z,18.10
2022-08-26T19:06:51.061Z,18.10
2022-08-26T19:09:00.278Z,18.08
2022-08-26T19:11:08.734Z,18.11
2022-08-26T19:13:17.174Z,18.20
2022-08-26T19:15:25.393Z,18.16
2022-08-26T19:17:33.497Z,18.10
2022-08-26T19:19:55.083Z,18.05
2022-08-26T19:22:03.209Z,18.04
2022-08-26T19:24:15.752Z,18.00
2022-08-26T19:26:24.322Z,18.10
2022-08-26T19:28:32.585Z,18.06
2022-08-26T19:30:42.119Z,18.12
2022-08-26T19:32:51.195Z,18.10
2022-08-26T19:35:01.641Z,18.03
2022-08-26T19:37:09.444Z,17.97
2022-08-26T19:39:17.471Z,17.97
2022-08-26T19:41:40.152Z,18.12
2022-08-26T19:43:48.229Z,18.07
2022-08-26T19:45:57.004Z,18.04
2022-08-26T19:48:11.436Z,17.99
2022-08-26T19:50:22.465Z,18.03
2022-08-26T19:52:33.391Z,17.96
2022-08-26T19:54:49.626Z,17.93
2022-08-26T19:56:57.514Z,17.89
2022-08-26T19:59:06.007Z,17.92
2022-08-26T20:01:15.052Z,17.89
2022-08-26T20:03:23.924Z,17.86
2022-08-26T20:05:34.416Z,17.80
2022-08-26T20:07:43.310Z,17.80
2022-08-26T20:09:51.887Z,17.84
2022-08-26T20:12:00.196Z,17.78
2022-08-26T20:14:08.443Z,17.69
2022-08-26T20:16:17.072Z,17.68
2022-08-26T20:18:37.879Z,17.65
2022-08-26T20:21:01.892Z,17.66
2022-08-26T20:23:09.682Z,17.64
2022-08-26T20:25:17.922Z,17.60
2022-08-26T20:27:37.804Z,17.62
2022-08-26T20:29:50.341Z,17.58
2022-08-26T20:32:01.777Z,17.69
2022-08-26T20:34:10.034Z,17.72
2022-08-26T20:36:21.508Z,17.67
2022-08-26T20:38:29.390Z,17.66
2022-08-26T20:40:37.392Z,17.63
2022-08-26T20:42:45.513Z,17.57
2022-08-26T20:44:54.205Z,17.52
2022-08-26T20:47:03.045Z,17.43
2022-08-26T20:49:11.381Z,17.38
2022-08-26T20:51:23.002Z,17.38
2022-08-26T20:53:31.858Z,17.51
2022-08-26T20:55:39.649Z,17.48
2022-08-26T20:57:47.532Z,17.48
2022-08-26T20:59:55.332Z,17.41
2022-08-26T21:02:03.175Z,17.41
2022-08-26T21:04:13.480Z,17.35
2022-08-26T21:06:24.447Z,17.33
2022-08-26T21:08:33.377Z,17.65
2022-08-26T21:10:41.681Z,17.56
2022-08-26T21:12:49.801Z,17.47
2022-08-26T21:14:58.333Z,17.41
2022-08-26T21:17:06.930Z,17.37
2022-08-26T21:19:18.042Z,17.36
2022-08-26T21:21:29.746Z,17.44
2022-08-26T21:23:38.179Z,17.37
2022-08-26T21:25:46.219Z,17.43
2022-08-26T21:27:55.745Z,17.38
2022-08-26T21:30:03.637Z,17.29
2022-08-26T21:32:12.487Z,17.26
2022-08-26T21:34:23.772Z,17.33
2022-08-26T21:36:34.481Z,17.28
2022-08-26T21:38:44.188Z,17.24
2022-08-26T21:41:00.995Z,17.31
2022-08-26T21:43:08.821Z,17.13
2022-08-26T21:45:22.406Z,17.09
2022-08-26T21:47:32.797Z,17.28
2022-08-26T21:49:40.751Z,17.25
2022-08-26T21:51:52.723Z,17.29
2022-08-26T21:54:01.516Z,17.36
2022-08-26T21:56:11.308Z,17.34
2022-08-26T21:58:19.419Z,17.30
2022-08-26T22:00:27.547Z,17.23
2022-08-26T22:02:35.440Z,17.18
2022-08-26T22:04:48.152Z,17.16
2022-08-26T22:07:00.370Z,17.14
2022-08-26T22:09:08.298Z,17.27
2022-08-26T22:11:17.957Z,17.35
2022-08-26T22:13:28.913Z,17.30
2022-08-26T22:15:40.399Z,17.24
2022-08-26T22:17:49.593Z,17.18
2022-08-26T22:19:58.209Z,17.34
2022-08-26T22:22:08.695Z,17.58
2022-08-26T22:24:17.014Z,17.59
2022-08-26T22:26:26.776Z,17.54
2022-08-26T22:28:35.194Z,17.47
2022-08-26T22:30:45.075Z,17.34
2022-08-26T22:32:53.242Z,17.36
2022-08-26T22:35:01.595Z,17.34
2022-08-26T22:37:21.773Z,17.37
2022-08-26T22:39:29.880Z,17.37
2022-08-26T22:41:38.025Z,17.39
2022-08-26T22:43:45.841Z,17.40
2022-08-26T22:45:54.718Z,17.43
2022-08-26T22:48:04.706Z,17.52
2022-08-26T22:50:13.188Z,17.50
2022-08-26T22:52:23.658Z,17.56
2022-08-26T22:54:31.819Z,17.62
2022-08-26T22:56:40.866Z,17.59
2022-08-26T22:58:48.745Z,17.59
2022-08-26T23:00:56.844Z,17.59
2022-08-26T23:03:07.788Z,17.63
2022-08-26T23:05:16.409Z,17.73
2022-08-26T23:07:26.892Z,17.74
2022-08-26T23:09:36.908Z,17.69
2022-08-26T23:11:46.291Z,17.65
2022-08-26T23:13:54.496Z,17.57
2022-08-26T23:16:03.768Z,17.54
2022-08-26T23:18:12.722Z,17.59
2022-08-26T23:20:21.573Z,17.69
2022-08-26T23:22:33.286Z,17.73
2022-08-26T23:24:42.355Z,17.70
2022-08-26T23:26:50.937Z,17.69
2022-08-26T23:28:58.799Z,17.80
2022-08-26T23:31:07.308Z,17.83
2022-08-26T23:33:16.102Z,17.85
2022-08-26T23:35:22.281Z,17.85
2022-08-26T23:37:36.633Z,17.82
2022-08-26T23:40:01.211Z,17.76
2022-08-26T23:42:09.468Z,17.74
2022-08-26T23:44:21.639Z,17.83
2022-08-26T23:46:29.701Z,17.87
2022-08-26T23:48:37.807Z,17.78
2022-08-26T23:50:57.999Z,17.86
2022-08-26T23:53:09.078Z,17.77
2022-08-26T23:55:17.074Z,17.78
2022-08-26T23:57:27.829Z,17.91
2022-08-26T23:59:35.696Z,17.98
